Danville, Iowa
Current Conditions -  °F | °C
As of 10:53 PM on Wednesday 22 Oct 2014 (Local Time) from KBRL Reporting Station
Clear Clear  
Wind Chill: 45°   Ceiling: Unl
Heat Index: 49°   Visibility: 10mi
Dew Point: 39°   Wind: 8mph
Humidity: 69%   Direction: 140°SE
Pressure: 30.2"   Gusts: NA
Location:  40.86°N, 91.31°W
Report Text: KBRL 230353Z AUTO 14007KT 10SM CLR 09/04 A3020 RMK AO2 SLP229 T00940039
Loading
Personal Weather Stations






























Interactive Weather Map
Tropical Storm Tracking
New forecast layout! Learn more

10-Day Weather Forecast

Advertisements
Track Severe Weather on mobile